Pagrindinis puslapis
METAR-TAF:

METAR-TAF

Oro uostai :

Al Maktumo tarptautinis oro uostas

Dubajus, Jungtiniai Arabų Emyratai

platuma: 24-53-49N, ilguma: 55-09-40E, Aukštis: 35 m

Dabartinis oras

Ataskaita buvo paskelbta 50 minutes, ne 04:00 UTC
Vėjas 5 kt iš Rytų
Temperatūra 33°C
Drėgmė 56%
Slėgis 1000 hPa
Matomumas: 6000 m

METAR: OMDW 160400Z 08005KT 6000 NSC 33/23 Q1000 TEMPO 4000 DU

Laikas: 08:50 (04:50 UTC)

Prognozė

Ataskaita buvo paskelbta 5 valandos ir 50 minutes, ne 23:00 UTC
Prognozė galioja nuo 16 metu 00 UTC su 17 metu 06 UTC
Vėjas 7 kt iš Rytų/Pietryčių
Matomumas: 8000 m
Tikimybė 30%
nuo 16 metu 01 UTC su 16 metu 07 UTC
Matomumas: 4000 m
dulkės
Tapsmas
nuo 16 metu 09 UTC su 16 metu 11 UTC
Vėjas 14 kt iš Šiaurės Vakarų
Tapsmas
nuo 16 metu 16 UTC su 16 metu 18 UTC
Vėjas 2 kt nuo kintamojo kryptimis

TAF: OMDW 152300Z 1600/1706 12007KT 8000 NSC PROB30 1601/1607 4000 DU BECMG 1609/1611 32014KT BECMG 1616/1618 VRB02KT

Orai ataskaitas ir orų prognozės (METAR, TAF).

turimą stotys yra geltonos ir raudonos taškus žemėlapyje.

Perkelti pele per norėdami pamatyti stoties vardą.

Tada spustelėkite, norėdami matyti oro stebėjimo ir prognozės.

Norėdami pakeisti žemėlapį: spustelėkite ant žalios mygtukų su juodo kryžiaus žemyn,; žalią mygtuką su brūkšneliu, jei norite nutolinti; arba žalių rodyklių gretimoms žemėlapius.


METAR-TAF: